Towson, MD

11:25 AM EDT on August 26, 2016 (GMT -0400)
Towson Weather | | Change Station

Elev 407 ft 39.38 °N, 76.60 °W | Updated 4 seconds ago

Partly Cloudy
Partly Cloudy
87.7 °F
Feels Like 96 °F
N
1.0
Wind Variable Wind from NNE
Gusts 4.0 mph

Today
High -- | Low -- °F
--% Chance of Precip.
Yesterday
High -- | Low -- °F
Precip. -- in
Pressure 30.06 in
Visibility 10.0 miles
Clouds Few 10000 ft
Heat Index 96 °F
Dew Point 74 °F
Humidity 64%
Rainfall 0.00 in
Snow Depth Not available.
6:29 AM 7:45 PM
Waning Crescent, 33% visible
METAR KMTN 261450Z 28010KT 10SM FEW100 32/25 A3006
Pressure 30.06 in
Visibility 10.0 miles
Clouds Few 10000 ft
Heat Index 96 °F
Dew Point 74 °F
Humidity 64%
Rainfall 0.00 in
Snow Depth Not available.
6:29 AM 7:45 PM
Waning Crescent, 33% visible
METAR KMTN 261450Z 28010KT 10SM FEW100 32/25 A3006

10-Day Weather Forecast

Almanac

Astronomy

Aug. 26, 2016 Rise Set
Actual Time
Civil Twilight
Nautical Twilight
Astronomical Twilight
Moon
Length of Visible Light
Length of Day
Tomorrow will be .
, % of the Moon is Illuminated

Today's Extremes

State Highs State Lows

Community

WunderPhotos

Upload Photos

1,935,104 photos uploaded!

WunderBlog® & News

Nearby

Air Quality

  Air Quality AQ Index Pollutant
Not available.

Snow Depth

Station Depth Elevation

Earthquake Activity

City Distance Mag. Time & Date
Minimum magnitude displayed is 2.5.

Coastal Water Temperatures

Place Temperature

Stations

Nearby Weather Stations

Station Location Temp. Windchill Dew Point Humidity Wind Precip. Elev Updated Type
                   

Watches & Warnings

There are currently no watches in effect.